Unicom:                    122.8

AWOS:                  118.275

Elevation           1458’ MSL

TPA:                   2500’ MSL

06/24:         5003’ L   75’ W

PAPI:       06/Left     24/Left

(Operate lights on unicom freq.)

Traffic Pattern: Left

Beacon: Sunset to Sunrise

Windsock: yes, lighted

Segmented Circle: No

 

Cleveland Center: 126.72/291.65

FSS: Altoona

[Source: ADDS]
METAR
KFKL 230156Z AUTO 25003KT 10SM CLR 12/08 A3010 RMK AO2 SLP197 T01170078 =
KFKL 222320Z 2300/2324 27003KT P6SM SCT120 FM230700 25004KT P6SM SKC FM231200 25004KT P6SM SKC FM231700 28007KT P6SM SCT025
TAF
KFKL 222320Z 2300/2324 27003KT P6SM SCT120 FM230700 25004KT P6SM SKC FM231200 25004KT P6SM SKC FM231700 28007KT P6SM SCT025 =
[Source: ADDS]
METAR
KDUJ 230153Z AUTO 27006KT 10SM CLR 12/06 A3008 RMK AO2 SLP186 T01220061 =
KDUJ 222320Z 2300/2324 29005KT P6SM SCT120 FM230700 26004KT P6SM SKC FM231700 28009KT P6SM SKC
TAF
KDUJ 222320Z 2300/2324 29005KT P6SM SCT120 FM230700 26004KT P6SM SKC FM231700 28009KT P6SM SKC =

Hangars

Hangars – A/B   $107/$123 a month.   Gravel floor/Concrete

Hangar C - Commercial hangar, concrete floor, heated. Call for pricing 814-226-9993.

Pay hangar rental year in full and receive discounted price.

Tie Downs Available.